JA73MC RJFM-RJFM

Flight info

Callsign JA73MC
Flight time 0h 32m
Altitude 00000
Route LCL
Aircraft SR22/L-SDLOV/LB1

Departure

Time 2026-05-01 13:38
Airport Miyazaki Airport (RJFM)

Arrival

Time 2026-05-01 14:10
Airport Miyazaki Airport (RJFM)
Time Latitude Longitude Altitude Speed Heading
2026-05-01 13:14 31.87875 131.44286 30 ft 0 kts 265°
2026-05-01 13:29 31.87872 131.44298 30 ft 7 kts 136°
2026-05-01 13:30 31.87876 131.44864 29 ft 15 kts 84°
2026-05-01 13:31 31.87830 131.45082 29 ft 6 kts 118°
2026-05-01 13:31 31.87822 131.45087 29 ft 0 kts 166°
2026-05-01 13:33 31.87821 131.45088 29 ft 0 kts 172°
2026-05-01 13:33 31.87821 131.45087 29 ft 0 kts 172°
2026-05-01 13:34 31.87821 131.45088 29 ft 0 kts 172°
2026-05-01 13:34 31.87821 131.45087 29 ft 0 kts 172°
2026-05-01 13:35 31.87821 131.45088 29 ft 0 kts 172°
2026-05-01 13:35 31.87821 131.45087 29 ft 0 kts 172°
2026-05-01 13:36 31.87821 131.45088 29 ft 0 kts 172°
2026-05-01 13:36 31.87821 131.45087 29 ft 0 kts 172°
2026-05-01 13:36 31.87821 131.45088 29 ft 0 kts 172°
2026-05-01 13:37 31.87764 131.45092 29 ft 14 kts 173°
2026-05-01 13:37 31.87729 131.45063 27 ft 0 kts 261°
2026-05-01 13:38 31.87684 131.44477 81 ft 78 kts 265°
2026-05-01 13:38 31.87655 131.43878 440 ft 73 kts 265°
2026-05-01 13:38 31.87615 131.43280 734 ft 76 kts 268°
2026-05-01 13:39 31.87345 131.42733 1035 ft 82 kts 233°
2026-05-01 13:39 31.86954 131.42236 1408 ft 85 kts 231°
2026-05-01 13:39 31.86492 131.41777 1835 ft 90 kts 228°
2026-05-01 13:39 31.85995 131.41349 2273 ft 85 kts 233°
2026-05-01 13:40 31.85522 131.40898 2632 ft 93 kts 234°
2026-05-01 13:40 31.84919 131.40471 3067 ft 115 kts 213°
2026-05-01 13:40 31.84023 131.40345 3335 ft 145 kts 185°
2026-05-01 13:40 31.82947 131.40617 3486 ft 173 kts 166°
2026-05-01 13:41 31.82209 131.41010 3679 ft 179 kts 148°
2026-05-01 13:41 31.81145 131.42483 3947 ft 178 kts 111°
2026-05-01 13:41 31.80609 131.43836 3965 ft 184 kts 107°
2026-05-01 13:41 31.80078 131.45231 4112 ft 188 kts 107°
2026-05-01 13:42 31.79757 131.46186 4096 ft 192 kts 102°
2026-05-01 13:42 31.79375 131.47677 4382 ft 183 kts 97°
2026-05-01 13:42 31.79078 131.49066 4663 ft 175 kts 101°
2026-05-01 13:42 31.78261 131.50148 4834 ft 182 kts 150°
2026-05-01 13:43 31.77022 131.50405 4940 ft 183 kts 178°
2026-05-01 13:43 31.75760 131.50509 5087 ft 183 kts 177°
2026-05-01 13:43 31.74485 131.50597 5181 ft 184 kts 180°
2026-05-01 13:43 31.73207 131.50623 5226 ft 188 kts 180°
2026-05-01 13:44 31.71893 131.50836 5235 ft 191 kts 170°
2026-05-01 13:44 31.70578 131.51138 5234 ft 194 kts 168°
2026-05-01 13:44 31.69246 131.51401 5280 ft 192 kts 173°
2026-05-01 13:44 31.67922 131.51593 5360 ft 191 kts 174°
2026-05-01 13:45 31.66626 131.51795 5564 ft 183 kts 172°
2026-05-01 13:45 31.65373 131.52018 5637 ft 186 kts 172°
2026-05-01 13:45 31.64091 131.52258 5763 ft 185 kts 171°
2026-05-01 13:45 31.62807 131.52512 5819 ft 189 kts 171°
2026-05-01 13:46 31.61532 131.52781 5988 ft 185 kts 162°
2026-05-01 13:46 31.60580 131.53751 5915 ft 183 kts 105°
2026-05-01 13:46 31.60644 131.55101 5958 ft 161 kts 50°
2026-05-01 13:46 31.61516 131.55670 6033 ft 144 kts 357°
2026-05-01 13:47 31.62503 131.55525 6101 ft 142 kts 351°
2026-05-01 13:47 31.63488 131.55369 6138 ft 144 kts 351°
2026-05-01 13:47 31.64489 131.55215 6172 ft 143 kts 353°
2026-05-01 13:47 31.65490 131.55115 6133 ft 146 kts 354°
2026-05-01 13:48 31.66493 131.55055 6158 ft 145 kts 357°
2026-05-01 13:48 31.67517 131.55036 6116 ft 147 kts 359°
2026-05-01 13:48 31.68528 131.55044 6151 ft 145 kts 359°
2026-05-01 13:48 31.69536 131.55050 6096 ft 148 kts 358°
2026-05-01 13:49 31.70561 131.55094 6083 ft 148 kts
2026-05-01 13:49 31.71553 131.54909 6008 ft 152 kts 331°
2026-05-01 13:49 31.72222 131.53906 5933 ft 160 kts 300°
2026-05-01 13:49 31.72278 131.52574 5847 ft 180 kts 258°
2026-05-01 13:50 31.71403 131.51488 5859 ft 195 kts 210°
2026-05-01 13:50 31.70144 131.51027 5846 ft 184 kts 197°
2026-05-01 13:50 31.68932 131.50719 5792 ft 175 kts 197°
2026-05-01 13:50 31.67738 131.50427 5801 ft 175 kts 195°
2026-05-01 13:51 31.66522 131.50321 5939 ft 176 kts 182°
2026-05-01 13:51 31.65307 131.50287 6008 ft 173 kts 182°
2026-05-01 13:51 31.64102 131.50290 6044 ft 174 kts 181°
2026-05-01 13:51 31.62886 131.50292 6081 ft 174 kts 181°
2026-05-01 13:52 31.61699 131.50391 6106 ft 175 kts 158°
2026-05-01 13:52 31.60924 131.51375 6115 ft 162 kts 97°
2026-05-01 13:52 31.61166 131.52520 6081 ft 140 kts 36°
2026-05-01 13:52 31.62020 131.52689 6116 ft 130 kts 339°
2026-05-01 13:53 31.62593 131.51799 5953 ft 153 kts 288°
2026-05-01 13:53 31.62001 131.49344 5967 ft 154 kts 260°
2026-05-01 13:53 31.61766 131.48150 5996 ft 146 kts 270°
2026-05-01 13:54 31.61615 131.46958 5975 ft 146 kts 271°
2026-05-01 13:54 31.61437 131.45775 5870 ft 153 kts 266°
2026-05-01 13:54 31.61206 131.44548 5891 ft 146 kts 270°
2026-05-01 13:54 31.61514 131.43603 5899 ft 124 kts 330°
2026-05-01 13:55 31.62326 131.43351 5978 ft 123 kts 349°
2026-05-01 13:55 31.63175 131.43107 5877 ft 127 kts 346°
2026-05-01 13:55 31.64046 131.42917 5828 ft 126 kts 354°
2026-05-01 13:55 31.64926 131.42850 5715 ft 129 kts 355°
2026-05-01 13:56 31.65819 131.42853 5651 ft 127 kts
2026-05-01 13:56 31.66713 131.43023 5653 ft 133 kts
2026-05-01 13:56 31.67548 131.43382 5744 ft 125 kts 21°
2026-05-01 13:56 31.68314 131.43928 5545 ft 134 kts 26°
2026-05-01 13:57 31.68982 131.44699 5478 ft 136 kts 45°
2026-05-01 13:57 31.69448 131.45684 5308 ft 143 kts 55°
2026-05-01 13:57 31.69723 131.46792 5402 ft 139 kts 73°
2026-05-01 13:57 31.69603 131.47977 5321 ft 154 kts 100°
2026-05-01 13:58 31.69017 131.49045 5342 ft 160 kts 130°
2026-05-01 13:58 31.68032 131.49713 5247 ft 170 kts 165°
2026-05-01 13:58 31.66867 131.49693 5207 ft 165 kts 194°
2026-05-01 13:58 31.65805 131.49309 5169 ft 157 kts 205°
2026-05-01 13:59 31.64806 131.48829 5113 ft 154 kts 209°
2026-05-01 13:59 31.64107 131.48029 4989 ft 136 kts 266°
2026-05-01 13:59 31.64362 131.47153 4938 ft 112 kts 329°
2026-05-01 13:59 31.65064 131.47114 4986 ft 106 kts 19°
2026-05-01 14:00 31.65700 131.47574 4954 ft 109 kts 26°
2026-05-01 14:00 31.66332 131.48094 4956 ft 111 kts 26°
2026-05-01 14:00 31.66971 131.48586 5007 ft 109 kts 23°
2026-05-01 14:00 31.67638 131.49002 5019 ft 109 kts 18°
2026-05-01 14:01 31.68340 131.49352 5030 ft 110 kts 17°
2026-05-01 14:01 31.69043 131.49701 5009 ft 113 kts 15°
2026-05-01 14:01 31.69794 131.50021 4983 ft 115 kts 14°
2026-05-01 14:01 31.70578 131.50329 4830 ft 124 kts 10°
2026-05-01 14:02 31.71438 131.50527 4699 ft 127 kts
2026-05-01 14:02 31.72295 131.50646 4617 ft 121 kts
2026-05-01 14:02 31.73127 131.50823 4344 ft 119 kts
2026-05-01 14:02 31.73947 131.51027 3955 ft 122 kts
2026-05-01 14:03 31.74772 131.51067 3614 ft 118 kts 350°
2026-05-01 14:03 31.75559 131.50863 3303 ft 114 kts 338°
2026-05-01 14:03 31.76271 131.50518 3052 ft 108 kts 333°
2026-05-01 14:03 31.76926 131.50112 2786 ft 105 kts 329°
2026-05-01 14:04 31.77535 131.49626 2503 ft 107 kts 320°
2026-05-01 14:04 31.78097 131.49079 2359 ft 104 kts 318°
2026-05-01 14:04 31.78648 131.48506 2310 ft 109 kts 317°
2026-05-01 14:04 31.79018 131.48111 2272 ft 109 kts 315°
2026-05-01 14:05 31.79738 131.47231 2149 ft 114 kts 310°
2026-05-01 14:05 31.80270 131.46522 2187 ft 116 kts 307°
2026-05-01 14:05 31.80723 131.45741 2313 ft 116 kts 303°
2026-05-01 14:05 31.81155 131.44921 2361 ft 118 kts 304°
2026-05-01 14:06 31.81677 131.44124 2194 ft 126 kts 311°
2026-05-01 14:06 31.82329 131.43432 2030 ft 128 kts 319°
2026-05-01 14:06 31.83151 131.43084 1756 ft 136 kts 358°
2026-05-01 14:06 31.84101 131.43474 1405 ft 145 kts 14°
2026-05-01 14:07 31.84900 131.44099 1416 ft 140 kts 57°
2026-05-01 14:07 31.85031 131.45217 1413 ft 137 kts 86°
2026-05-01 14:07 31.85065 131.46325 1287 ft 135 kts 83°
2026-05-01 14:08 31.85212 131.48362 997 ft 119 kts 83°
2026-05-01 14:08 31.85630 131.49036 805 ft 99 kts 357°
2026-05-01 14:08 31.86276 131.49000 717 ft 91 kts 346°
2026-05-01 14:08 31.86865 131.48973 693 ft 80 kts 342°
2026-05-01 14:09 31.87403 131.48907 687 ft 75 kts 341°
2026-05-01 14:09 31.87788 131.48608 664 ft 66 kts 291°
2026-05-01 14:09 31.87899 131.48094 558 ft 65 kts 275°
2026-05-01 14:09 31.87905 131.47557 412 ft 66 kts 266°
2026-05-01 14:10 31.87870 131.47028 283 ft 66 kts 263°
2026-05-01 14:10 31.87831 131.46502 150 ft 65 kts 265°
2026-05-01 14:10 31.87795 131.45980 65 ft 62 kts 263°
2026-05-01 14:10 31.87761 131.45527 27 ft 49 kts 265°
2026-05-01 14:11 31.87723 131.44992 115 ft 75 kts 266°
2026-05-01 14:11 31.87671 131.43711 845 ft 84 kts 267°
2026-05-01 14:11 31.87615 131.42991 841 ft 91 kts 264°
2026-05-01 14:12 31.87559 131.42247 887 ft 92 kts 264°
2026-05-01 14:12 31.87509 131.41496 908 ft 88 kts 281°
2026-05-01 14:12 31.88063 131.41121 848 ft 112 kts 348°
2026-05-01 14:12 31.88824 131.41070 864 ft 107 kts 348°
2026-05-01 14:13 31.89568 131.41055 883 ft 113 kts
2026-05-01 14:13 31.89985 131.41475 875 ft 130 kts 60°
2026-05-01 14:13 31.90130 131.42930 851 ft 141 kts 85°
2026-05-01 14:13 31.90198 131.44068 835 ft 136 kts 86°
2026-05-01 14:14 31.90256 131.45127 956 ft 125 kts 86°
2026-05-01 14:14 31.90315 131.46129 978 ft 118 kts 84°
2026-05-01 14:14 31.90377 131.47059 906 ft 111 kts 83°
2026-05-01 14:14 31.90433 131.47940 786 ft 105 kts 100°
2026-05-01 14:15 31.89976 131.48394 766 ft 87 kts 185°
2026-05-01 14:15 31.89389 131.48460 739 ft 83 kts 184°
2026-05-01 14:15 31.88812 131.48531 686 ft 82 kts 186°
2026-05-01 14:15 31.88235 131.48569 598 ft 79 kts 202°
2026-05-01 14:16 31.87912 131.48214 547 ft 65 kts 266°
2026-05-01 14:16 31.87889 131.47638 410 ft 71 kts 268°
2026-05-01 14:16 31.87875 131.47076 315 ft 69 kts 259°
2026-05-01 14:16 31.87829 131.46522 188 ft 69 kts 262°
2026-05-01 14:17 31.87794 131.45971 65 ft 67 kts 264°
2026-05-01 14:17 31.87759 131.45505 26 ft 51 kts 265°
2026-05-01 14:17 31.87723 131.44920 158 ft 76 kts 266°
2026-05-01 14:17 31.87693 131.44329 530 ft 72 kts 266°
2026-05-01 14:18 31.87646 131.43719 818 ft 84 kts 263°
2026-05-01 14:18 31.87585 131.42972 895 ft 95 kts 265°
2026-05-01 14:18 31.87537 131.42179 925 ft 97 kts 264°
2026-05-01 14:18 31.87496 131.41656 881 ft 96 kts 269°
2026-05-01 14:19 31.88216 131.41127 836 ft 116 kts 349°
2026-05-01 14:19 31.89028 131.41071 762 ft 117 kts 348°
2026-05-01 14:19 31.89810 131.41199 772 ft 124 kts 31°
2026-05-01 14:19 31.90108 131.42128 818 ft 128 kts 83°
2026-05-01 14:20 31.90182 131.43191 815 ft 128 kts 86°
2026-05-01 14:20 31.90310 131.45277 905 ft 133 kts 84°
2026-05-01 14:20 31.90372 131.46351 864 ft 125 kts 85°
2026-05-01 14:21 31.90435 131.47276 883 ft 105 kts 85°
2026-05-01 14:21 31.90281 131.48080 725 ft 98 kts 153°
2026-05-01 14:21 31.89678 131.48203 681 ft 89 kts 187°
2026-05-01 14:22 31.88524 131.48290 614 ft 82 kts 187°
2026-05-01 14:22 31.88023 131.48154 572 ft 71 kts 235°
2026-05-01 14:22 31.87904 131.47618 458 ft 67 kts 266°
2026-05-01 14:22 31.87877 131.47079 330 ft 65 kts 262°
2026-05-01 14:23 31.87840 131.46549 211 ft 66 kts 262°
2026-05-01 14:23 31.87794 131.46025 151 ft 67 kts 260°
2026-05-01 14:23 31.87756 131.45460 407 ft 74 kts 263°
2026-05-01 14:23 31.87722 131.44877 849 ft 79 kts 264°
2026-05-01 14:24 31.87677 131.44184 898 ft 89 kts 266°
2026-05-01 14:24 31.87627 131.43423 919 ft 96 kts 265°
2026-05-01 14:24 31.87578 131.42629 876 ft 98 kts 265°
2026-05-01 14:24 31.87533 131.41838 849 ft 94 kts 265°
2026-05-01 14:25 31.87848 131.41233 876 ft 106 kts 338°
2026-05-01 14:25 31.88641 131.41170 785 ft 119 kts 350°
2026-05-01 14:25 31.89420 131.41103 774 ft 107 kts 347°
2026-05-01 14:25 31.90013 131.41617 836 ft 123 kts 69°
2026-05-01 14:26 31.90113 131.42686 819 ft 137 kts 85°
2026-05-01 14:26 31.90238 131.44885 949 ft 133 kts 86°
2026-05-01 14:26 31.90280 131.45991 943 ft 132 kts 87°
2026-05-01 14:27 31.90331 131.46975 960 ft 113 kts 85°
2026-05-01 14:27 31.90362 131.47589 854 ft 113 kts 85°
2026-05-01 14:27 31.89813 131.48327 718 ft 89 kts 190°
2026-05-01 14:28 31.88708 131.48391 686 ft 90 kts 185°
2026-05-01 14:28 31.88130 131.48324 612 ft 77 kts 222°
2026-05-01 14:28 31.87914 131.47760 423 ft 82 kts 262°
2026-05-01 14:28 31.87871 131.47132 298 ft 77 kts 266°
2026-05-01 14:29 31.87834 131.46517 152 ft 75 kts 262°
2026-05-01 14:29 31.87790 131.45917 54 ft 71 kts 264°
2026-05-01 14:30 31.87708 131.44765 26 ft 32 kts 265°
2026-05-01 14:30 31.87697 131.44605 25 ft 11 kts 272°
2026-05-01 14:30 31.87768 131.44569 28 ft 14 kts 354°
2026-05-01 14:31 31.87844 131.44400 29 ft 16 kts 265°
2026-05-01 14:31 31.87838 131.44302 29 ft 9 kts 264°
2026-05-01 14:31 31.87849 131.44245 30 ft 6 kts 354°
2026-05-01 14:31 31.87880 131.44244 30 ft 0 kts 42°
2026-05-01 14:32 31.87880 131.44248 30 ft 2 kts 93°
2026-05-01 14:32 31.87882 131.44257 30 ft 0 kts 79°